createdAt,value
2023-01-13T00:04:35.496Z,99350.34
2023-01-13T00:09:37.841Z,99359.84
2023-01-13T00:14:40.133Z,99356.28
2023-01-13T00:19:42.422Z,99344.34
2023-01-13T00:24:44.628Z,99344.16
2023-01-13T00:29:46.903Z,99342.50
2023-01-13T00:34:49.126Z,99337.88
2023-01-13T00:39:54.577Z,99329.97
2023-01-13T00:44:56.926Z,99338.13
2023-01-13T00:49:59.203Z,99347.25
2023-01-13T00:55:01.532Z,99344.88
2023-01-13T01:00:04.734Z,99348.13
2023-01-13T01:05:07.799Z,99376.88
2023-01-13T01:10:10.665Z,99351.88
2023-01-13T01:15:12.884Z,99345.88
2023-01-13T01:20:15.212Z,99360.25
2023-01-13T01:25:17.431Z,99349.94
2023-01-13T01:30:19.658Z,99356.13
2023-01-13T01:35:21.895Z,99353.69
2023-01-13T01:40:24.188Z,99332.84
2023-01-13T01:45:28.634Z,99359.94
2023-01-13T01:50:31.261Z,99364.84
2023-01-13T01:55:35.326Z,99383.81
2023-01-13T02:00:37.766Z,99367.84
2023-01-13T02:05:40.162Z,99352.59
2023-01-13T02:10:43.223Z,99364.56
2023-01-13T02:16:12.868Z,99352.78
2023-01-13T02:21:24.315Z,99357.50
2023-01-13T02:27:03.983Z,99363.66
2023-01-13T02:32:17.228Z,99365.47
2023-01-13T02:37:28.835Z,99372.06
2023-01-13T02:42:53.066Z,99358.88
2023-01-13T02:47:57.170Z,99375.66
2023-01-13T02:53:02.537Z,99363.09
2023-01-13T02:58:06.735Z,99364.59
2023-01-13T03:03:08.824Z,99369.34
2023-01-13T03:08:19.159Z,99363.25
2023-01-13T03:13:30.158Z,99358.50
2023-01-13T03:18:42.925Z,99367.22
2023-01-13T03:24:05.982Z,99360.75
2023-01-13T03:29:19.016Z,99358.31
2023-01-13T03:34:22.556Z,99360.59
2023-01-13T03:39:33.558Z,99354.81
2023-01-13T03:44:54.888Z,99352.22
2023-01-13T03:50:01.479Z,99361.72
2023-01-13T03:55:09.619Z,99354.22
2023-01-13T04:00:13.444Z,99352.91
2023-01-13T04:05:17.217Z,99364.94
2023-01-13T04:10:31.790Z,99364.81
2023-01-13T04:15:40.315Z,99349.53
2023-01-13T04:20:43.905Z,99357.69
2023-01-13T04:25:46.813Z,99360.19
2023-01-13T04:30:49.411Z,99349.13
2023-01-13T04:35:52.668Z,99345.72
2023-01-13T04:40:54.945Z,99352.69
2023-01-13T04:45:57.058Z,99340.44
2023-01-13T04:50:59.167Z,99356.28
2023-01-13T04:56:01.212Z,99336.06
2023-01-13T05:01:03.372Z,99336.38
2023-01-13T05:06:05.671Z,99343.44
2023-01-13T05:11:27.719Z,99336.50
2023-01-13T05:16:48.470Z,99342.66
2023-01-13T05:22:09.174Z,99347.09
2023-01-13T05:27:11.525Z,99352.16
2023-01-13T05:32:13.790Z,99348.63
2023-01-13T05:37:16.272Z,99349.41
2023-01-13T05:42:37.007Z,99354.09
2023-01-13T05:47:39.226Z,99360.81
2023-01-13T05:52:41.308Z,99355.69
2023-01-13T05:57:43.568Z,99347.63
2023-01-13T06:02:45.654Z,99369.06
2023-01-13T06:07:47.719Z,99367.16
2023-01-13T06:12:49.813Z,99360.56
2023-01-13T06:17:52.086Z,99366.00
2023-01-13T06:22:54.624Z,99362.28
2023-01-13T06:27:57.339Z,99384.84
2023-01-13T06:33:01.848Z,99362.91
2023-01-13T06:38:05.477Z,99376.97
2023-01-13T06:43:17.272Z,99364.50
2023-01-13T06:48:32.980Z,99372.72
2023-01-13T06:53:35.161Z,99373.13
2023-01-13T06:58:37.263Z,99381.41
2023-01-13T07:03:40.457Z,99379.97
2023-01-13T07:08:42.517Z,99385.16
2023-01-13T07:14:03.433Z,99387.84
2023-01-13T07:19:05.440Z,99396.06
2023-01-13T07:24:07.587Z,99406.03
2023-01-13T07:29:09.605Z,99406.78
2023-01-13T07:34:11.763Z,99411.06
2023-01-13T07:39:13.875Z,99408.22
2023-01-13T07:44:15.986Z,99402.00
2023-01-13T07:49:18.216Z,99414.84
2023-01-13T07:54:25.530Z,99407.38
2023-01-13T07:59:33.728Z,99420.25
2023-01-13T08:04:35.844Z,99423.84
2023-01-13T08:09:38.085Z,99412.59
2023-01-13T08:14:40.249Z,99441.09
2023-01-13T08:19:42.395Z,99434.59
2023-01-13T08:24:44.414Z,99449.84
2023-01-13T08:29:46.450Z,99449.91
2023-01-13T08:34:48.663Z,99468.38
2023-01-13T08:39:50.784Z,99454.81
2023-01-13T08:44:53.154Z,99466.59
2023-01-13T08:49:55.270Z,99470.06
2023-01-13T08:54:57.343Z,99462.50
2023-01-13T08:59:59.444Z,99489.44
2023-01-13T09:05:03.820Z,99481.78
2023-01-13T09:10:07.031Z,99492.75
2023-01-13T09:15:09.741Z,99491.63
2023-01-13T09:20:12.755Z,99504.28
2023-01-13T09:25:14.858Z,99488.25
2023-01-13T09:30:17.092Z,99476.50
2023-01-13T09:35:19.140Z,99492.88
2023-01-13T09:40:23.960Z,99488.13
2023-01-13T09:45:29.376Z,99495.03
2023-01-13T09:50:38.616Z,99506.63
2023-01-13T09:55:40.689Z,99500.25
2023-01-13T10:01:16.740Z,99510.06
2023-01-13T10:06:35.680Z,99494.78
2023-01-13T10:11:58.451Z,99511.31
2023-01-13T10:17:17.929Z,99494.28
2023-01-13T10:22:23.149Z,99506.84
2023-01-13T10:27:32.416Z,99510.03
2023-01-13T10:32:34.488Z,99516.66
2023-01-13T10:37:36.665Z,99524.66
2023-01-13T10:42:38.675Z,99507.31
2023-01-13T10:47:41.055Z,99511.75
2023-01-13T10:53:24.849Z,99494.47
2023-01-13T10:58:27.783Z,99489.69
2023-01-13T11:03:40.501Z,99509.03
2023-01-13T11:08:45.535Z,99492.88
2023-01-13T11:14:09.172Z,99505.84
2023-01-13T11:19:15.934Z,99517.34
2023-01-13T11:24:37.968Z,99513.97
2023-01-13T11:29:51.786Z,99520.03
2023-01-13T11:35:03.520Z,99522.88
2023-01-13T11:40:17.257Z,99515.91
2023-01-13T11:45:37.705Z,99542.59
2023-01-13T11:50:51.192Z,99562.66
2023-01-13T11:56:14.997Z,99554.03
2023-01-13T12:01:23.357Z,99558.69
2023-01-13T12:06:37.171Z,99544.75
2023-01-13T12:12:13.265Z,99544.00
2023-01-13T12:17:41.112Z,99539.06
2023-01-13T12:22:46.005Z,99532.94
2023-01-13T12:27:55.362Z,99569.31
2023-01-13T12:33:03.419Z,99548.59
2023-01-13T12:38:28.105Z,99569.31
2023-01-13T12:43:49.652Z,99578.88
2023-01-13T12:48:54.767Z,99581.47
2023-01-13T12:53:56.921Z,99587.97
2023-01-13T12:59:18.855Z,99582.56
2023-01-13T13:04:42.049Z,99587.22
2023-01-13T13:09:48.902Z,99575.25
2023-01-13T13:14:51.067Z,99593.84
2023-01-13T13:19:53.194Z,99603.56
2023-01-13T13:24:55.681Z,99613.16
2023-01-13T13:30:18.517Z,99617.56
2023-01-13T13:35:57.916Z,99630.66
2023-01-13T13:41:18.651Z,99640.25
2023-01-13T13:46:48.250Z,99639.34
2023-01-13T13:52:10.809Z,99640.28
2023-01-13T13:57:18.047Z,99654.66
2023-01-13T14:02:31.691Z,99674.00
2023-01-13T14:07:45.534Z,99694.03
2023-01-13T14:12:47.714Z,99693.69
2023-01-13T14:17:49.819Z,99716.91
2023-01-13T14:22:53.545Z,99706.84
2023-01-13T14:27:56.369Z,99731.72
2023-01-13T14:32:58.502Z,99732.75
2023-01-13T14:38:04.355Z,99750.88
2023-01-13T14:43:12.928Z,99755.44
2023-01-13T14:48:14.962Z,99758.13
2023-01-13T14:53:36.777Z,99768.59
2023-01-13T14:58:38.843Z,99776.66
2023-01-13T15:03:42.379Z,99785.88
2023-01-13T15:08:44.695Z,99795.38
2023-01-13T15:13:53.278Z,99801.16
2023-01-13T15:18:56.607Z,99817.38
2023-01-13T15:24:03.482Z,99832.16
2023-01-13T15:29:11.753Z,99849.34
2023-01-13T15:34:13.909Z,99849.56
2023-01-13T15:39:16.069Z,99860.13
2023-01-13T15:44:36.936Z,99870.03
2023-01-13T15:49:46.051Z,99871.09
2023-01-13T15:54:49.020Z,99878.66
2023-01-13T15:59:53.411Z,99891.53
2023-01-13T16:04:55.615Z,99885.56
2023-01-13T16:09:57.904Z,99900.38
2023-01-13T16:15:00.983Z,99895.19
2023-01-13T16:20:03.669Z,99902.09
2023-01-13T16:25:06.223Z,99905.03
2023-01-13T16:30:22.093Z,99905.03
2023-01-13T16:35:25.650Z,99915.41
2023-01-13T16:40:31.271Z,99915.84
2023-01-13T16:45:34.578Z,99925.91
2023-01-13T16:50:40.789Z,99932.50
2023-01-13T16:55:43.427Z,99944.31
2023-01-13T17:00:48.917Z,99961.38
2023-01-13T17:05:51.356Z,99969.31
2023-01-13T17:10:53.624Z,99972.25
2023-01-13T17:15:55.765Z,99986.84
2023-01-13T17:20:58.768Z,99980.25
2023-01-13T17:26:00.908Z,100000.97
2023-01-13T17:31:03.086Z,100007.84
2023-01-13T17:36:05.354Z,100000.56
2023-01-13T17:41:07.538Z,100007.44
2023-01-13T17:46:11.372Z,100016.16
2023-01-13T17:51:14.579Z,100014.34
2023-01-13T17:56:18.820Z,100036.13
2023-01-13T18:01:22.423Z,100029.75
2023-01-13T18:06:24.671Z,100037.34
2023-01-13T18:11:27.252Z,100047.22
2023-01-13T18:16:30.919Z,100049.59
2023-01-13T18:21:51.654Z,100049.91
2023-01-13T18:27:12.458Z,100058.38
2023-01-13T18:32:14.796Z,100059.84
2023-01-13T18:37:17.260Z,100078.47
2023-01-13T18:42:39.001Z,100075.41
2023-01-13T18:47:42.250Z,100086.06
2023-01-13T18:52:44.944Z,100077.44
2023-01-13T18:57:47.784Z,100086.34
2023-01-13T19:08:08.362Z,100114.19
2023-01-13T19:13:10.562Z,100106.06
2023-01-13T19:18:14.865Z,100115.09
2023-01-13T19:23:18.244Z,100120.25
2023-01-13T19:28:21.856Z,100121.44
2023-01-13T19:33:24.105Z,100129.50
2023-01-13T19:38:27.104Z,100130.75
2023-01-13T19:43:47.716Z,100137.19
2023-01-13T19:48:49.745Z,100149.00
2023-01-13T19:53:51.824Z,100147.03
2023-01-13T19:58:54.023Z,100144.53
2023-01-13T20:04:02.885Z,100160.53
2023-01-13T20:09:05.067Z,100172.19
2023-01-13T20:14:09.566Z,100185.84
2023-01-13T20:19:11.724Z,100193.97
2023-01-13T20:24:17.664Z,100205.94
2023-01-13T20:29:20.706Z,100205.41
2023-01-13T20:34:23.147Z,100204.44
2023-01-13T20:39:26.538Z,100238.78
2023-01-13T20:44:29.227Z,100219.84
2023-01-13T20:49:31.535Z,100223.59
2023-01-13T20:54:34.132Z,100245.13
2023-01-13T20:59:37.387Z,100237.00
2023-01-13T21:04:39.781Z,100260.03
2023-01-13T21:09:42.203Z,100260.44
2023-01-13T21:15:02.896Z,100270.97
2023-01-13T21:20:08.402Z,100266.28
2023-01-13T21:25:12.230Z,100273.84
2023-01-13T21:30:15.777Z,100270.44
2023-01-13T21:35:18.143Z,100274.59
2023-01-13T21:40:20.322Z,100270.06
2023-01-13T21:45:41.070Z,100283.34
2023-01-13T21:50:43.157Z,100292.09
2023-01-13T21:55:45.314Z,100295.06
2023-01-13T22:00:49.327Z,100303.13
2023-01-13T22:05:55.673Z,100305.63
2023-01-13T22:11:02.467Z,100309.22
2023-01-13T22:16:05.045Z,100323.47
2023-01-13T22:21:07.667Z,100321.28
2023-01-13T22:26:10.413Z,100321.25
2023-01-13T22:31:15.216Z,100329.81
2023-01-13T22:36:17.541Z,100329.97
2023-01-13T22:41:19.875Z,100339.69
2023-01-13T22:46:23.206Z,100345.56
2023-01-13T22:51:26.574Z,100344.66
2023-01-13T22:56:29.022Z,100347.22
2023-01-13T23:01:33.331Z,100367.31
2023-01-13T23:06:35.562Z,100366.94
2023-01-13T23:11:37.939Z,100382.59
2023-01-13T23:16:40.966Z,100387.84
2023-01-13T23:21:43.258Z,100382.69
2023-01-13T23:26:45.476Z,100376.47
2023-01-13T23:31:47.743Z,100390.59
2023-01-13T23:36:49.945Z,100388.59
2023-01-13T23:41:52.050Z,100392.06
2023-01-13T23:46:54.354Z,100395.72
2023-01-13T23:51:56.558Z,100397.97
2023-01-13T23:56:59.808Z,100398.09
